sensor_id;sensor_type;location;lat;lon;timestamp;temperature;humidity
21193;DHT22;10754;51.106;7.164;2022-09-06T00:02:24;24.90;99.90
21193;DHT22;10754;51.106;7.164;2022-09-06T00:04:54;24.90;99.90
21193;DHT22;10754;51.106;7.164;2022-09-06T00:07:20;24.90;99.90
21193;DHT22;10754;51.106;7.164;2022-09-06T00:09:45;24.90;99.90
21193;DHT22;10754;51.106;7.164;2022-09-06T00:12:11;25.00;99.90
21193;DHT22;10754;51.106;7.164;2022-09-06T00:14:36;24.90;99.90
21193;DHT22;10754;51.106;7.164;2022-09-06T00:17:02;25.00;99.90
21193;DHT22;10754;51.106;7.164;2022-09-06T00:19:27;25.00;99.90
21193;DHT22;10754;51.106;7.164;2022-09-06T00:21:53;25.00;99.90
21193;DHT22;10754;51.106;7.164;2022-09-06T00:24:18;25.00;99.90
21193;DHT22;10754;51.106;7.164;2022-09-06T00:26:44;25.00;99.90
21193;DHT22;10754;51.106;7.164;2022-09-06T00:29:09;25.10;99.90
21193;DHT22;10754;51.106;7.164;2022-09-06T00:31:35;25.00;99.90
21193;DHT22;10754;51.106;7.164;2022-09-06T00:34:00;25.00;99.90
21193;DHT22;10754;51.106;7.164;2022-09-06T00:36:26;25.00;99.90
21193;DHT22;10754;51.106;7.164;2022-09-06T00:38:52;25.10;99.90
21193;DHT22;10754;51.106;7.164;2022-09-06T00:41:18;25.10;99.90
21193;DHT22;10754;51.106;7.164;2022-09-06T00:43:44;25.10;99.90
21193;DHT22;10754;51.106;7.164;2022-09-06T00:46:13;25.30;99.90
21193;DHT22;10754;51.106;7.164;2022-09-06T00:48:40;25.20;99.90
21193;DHT22;10754;51.106;7.164;2022-09-06T00:51:10;24.60;99.90
21193;DHT22;10754;51.106;7.164;2022-09-06T00:53:37;24.20;99.90
21193;DHT22;10754;51.106;7.164;2022-09-06T00:56:02;24.00;99.90
21193;DHT22;10754;51.106;7.164;2022-09-06T00:58:28;23.80;99.90
21193;DHT22;10754;51.106;7.164;2022-09-06T01:00:54;23.70;99.90
21193;DHT22;10754;51.106;7.164;2022-09-06T01:03:22;23.80;99.90
21193;DHT22;10754;51.106;7.164;2022-09-06T01:09:01;24.00;99.90
21193;DHT22;10754;51.106;7.164;2022-09-06T01:15:14;24.10;99.90
21193;DHT22;10754;51.106;7.164;2022-09-06T01:17:57;24.10;99.90
21193;DHT22;10754;51.106;7.164;2022-09-06T01:20:43;24.20;99.90
21193;DHT22;10754;51.106;7.164;2022-09-06T01:23:47;24.20;99.90
21193;DHT22;10754;51.106;7.164;2022-09-06T01:26:55;24.30;99.90
21193;DHT22;10754;51.106;7.164;2022-09-06T01:35:05;24.20;99.90
21193;DHT22;10754;51.106;7.164;2022-09-06T01:37:34;24.30;99.90
21193;DHT22;10754;51.106;7.164;2022-09-06T01:39:59;24.30;99.90
21193;DHT22;10754;51.106;7.164;2022-09-06T01:42:27;24.20;99.90
21193;DHT22;10754;51.106;7.164;2022-09-06T01:44:58;24.30;99.90
21193;DHT22;10754;51.106;7.164;2022-09-06T01:50:04;24.20;99.90
21193;DHT22;10754;51.106;7.164;2022-09-06T01:55:50;24.20;99.90
21193;DHT22;10754;51.106;7.164;2022-09-06T02:03:53;24.00;99.90
21193;DHT22;10754;51.106;7.164;2022-09-06T02:06:36;24.00;99.90
21193;DHT22;10754;51.106;7.164;2022-09-06T02:09:10;24.00;99.90
21193;DHT22;10754;51.106;7.164;2022-09-06T02:11:55;24.00;99.90
21193;DHT22;10754;51.106;7.164;2022-09-06T02:14:44;24.10;99.90
21193;DHT22;10754;51.106;7.164;2022-09-06T02:17:15;24.20;99.90
21193;DHT22;10754;51.106;7.164;2022-09-06T02:19:49;24.10;99.90
21193;DHT22;10754;51.106;7.164;2022-09-06T02:22:20;24.00;99.90
21193;DHT22;10754;51.106;7.164;2022-09-06T02:24:48;24.00;99.90
21193;DHT22;10754;51.106;7.164;2022-09-06T02:27:16;24.00;99.90
21193;DHT22;10754;51.106;7.164;2022-09-06T02:29:41;24.00;99.90
21193;DHT22;10754;51.106;7.164;2022-09-06T02:32:21;24.00;99.90
21193;DHT22;10754;51.106;7.164;2022-09-06T02:34:51;24.10;99.90
21193;DHT22;10754;51.106;7.164;2022-09-06T02:37:18;24.10;99.90
21193;DHT22;10754;51.106;7.164;2022-09-06T02:39:44;24.10;99.90
21193;DHT22;10754;51.106;7.164;2022-09-06T02:42:11;24.00;99.90
21193;DHT22;10754;51.106;7.164;2022-09-06T02:44:37;24.10;99.90
21193;DHT22;10754;51.106;7.164;2022-09-06T02:47:02;24.00;99.90
21193;DHT22;10754;51.106;7.164;2022-09-06T02:49:29;23.90;99.90
21193;DHT22;10754;51.106;7.164;2022-09-06T02:51:55;23.90;99.90
21193;DHT22;10754;51.106;7.164;2022-09-06T02:54:21;23.90;99.90
21193;DHT22;10754;51.106;7.164;2022-09-06T02:56:47;23.90;99.90
21193;DHT22;10754;51.106;7.164;2022-09-06T02:59:12;24.00;99.90
21193;DHT22;10754;51.106;7.164;2022-09-06T03:01:38;24.00;99.90
21193;DHT22;10754;51.106;7.164;2022-09-06T03:04:03;24.00;99.90
21193;DHT22;10754;51.106;7.164;2022-09-06T03:06:29;24.00;99.90
21193;DHT22;10754;51.106;7.164;2022-09-06T03:08:55;24.00;99.90
21193;DHT22;10754;51.106;7.164;2022-09-06T03:11:21;23.90;99.90
21193;DHT22;10754;51.106;7.164;2022-09-06T03:13:46;23.90;99.90
21193;DHT22;10754;51.106;7.164;2022-09-06T03:16:12;24.10;99.90
21193;DHT22;10754;51.106;7.164;2022-09-06T03:18:37;24.10;99.90
21193;DHT22;10754;51.106;7.164;2022-09-06T03:21:03;24.20;99.90
21193;DHT22;10754;51.106;7.164;2022-09-06T03:23:28;24.20;99.90
21193;DHT22;10754;51.106;7.164;2022-09-06T03:25:55;24.10;99.90
21193;DHT22;10754;51.106;7.164;2022-09-06T03:28:21;23.80;99.90
21193;DHT22;10754;51.106;7.164;2022-09-06T03:30:48;23.60;99.90
21193;DHT22;10754;51.106;7.164;2022-09-06T03:33:14;23.50;99.90
21193;DHT22;10754;51.106;7.164;2022-09-06T03:35:47;23.40;99.90
21193;DHT22;10754;51.106;7.164;2022-09-06T03:38:13;23.40;99.90
21193;DHT22;10754;51.106;7.164;2022-09-06T03:40:38;23.40;99.90
21193;DHT22;10754;51.106;7.164;2022-09-06T03:43:04;23.40;99.90
21193;DHT22;10754;51.106;7.164;2022-09-06T03:45:29;23.40;99.90
21193;DHT22;10754;51.106;7.164;2022-09-06T03:47:55;23.40;99.90
21193;DHT22;10754;51.106;7.164;2022-09-06T03:50:20;23.40;99.90
21193;DHT22;10754;51.106;7.164;2022-09-06T03:52:46;23.40;99.90
21193;DHT22;10754;51.106;7.164;2022-09-06T03:55:11;23.40;99.90
21193;DHT22;10754;51.106;7.164;2022-09-06T03:57:37;23.30;99.90
21193;DHT22;10754;51.106;7.164;2022-09-06T04:00:03;23.40;99.90
21193;DHT22;10754;51.106;7.164;2022-09-06T04:02:29;23.30;99.90
21193;DHT22;10754;51.106;7.164;2022-09-06T04:04:54;23.40;99.90
21193;DHT22;10754;51.106;7.164;2022-09-06T04:07:21;23.40;99.90
21193;DHT22;10754;51.106;7.164;2022-09-06T04:09:47;23.30;99.90
21193;DHT22;10754;51.106;7.164;2022-09-06T04:12:13;23.30;99.90
21193;DHT22;10754;51.106;7.164;2022-09-06T04:14:38;23.30;99.90
21193;DHT22;10754;51.106;7.164;2022-09-06T04:17:04;23.30;99.90
21193;DHT22;10754;51.106;7.164;2022-09-06T04:19:30;23.30;99.90
21193;DHT22;10754;51.106;7.164;2022-09-06T04:21:55;23.40;99.90
21193;DHT22;10754;51.106;7.164;2022-09-06T04:24:21;23.30;99.90
21193;DHT22;10754;51.106;7.164;2022-09-06T04:26:46;23.20;99.90
21193;DHT22;10754;51.106;7.164;2022-09-06T04:29:12;23.20;99.90
21193;DHT22;10754;51.106;7.164;2022-09-06T04:31:37;23.20;99.90
21193;DHT22;10754;51.106;7.164;2022-09-06T04:34:03;23.20;99.90
21193;DHT22;10754;51.106;7.164;2022-09-06T04:36:28;23.20;99.90
21193;DHT22;10754;51.106;7.164;2022-09-06T04:38:54;23.10;99.90
21193;DHT22;10754;51.106;7.164;2022-09-06T04:41:20;23.20;99.90
21193;DHT22;10754;51.106;7.164;2022-09-06T04:43:46;23.10;99.90
21193;DHT22;10754;51.106;7.164;2022-09-06T04:46:23;23.10;99.90
21193;DHT22;10754;51.106;7.164;2022-09-06T04:48:51;23.00;99.90
21193;DHT22;10754;51.106;7.164;2022-09-06T04:51:17;23.00;99.90
21193;DHT22;10754;51.106;7.164;2022-09-06T04:53:43;23.00;99.90
21193;DHT22;10754;51.106;7.164;2022-09-06T04:56:13;23.10;99.90
21193;DHT22;10754;51.106;7.164;2022-09-06T04:58:41;23.00;99.90
21193;DHT22;10754;51.106;7.164;2022-09-06T05:01:06;23.10;99.90
21193;DHT22;10754;51.106;7.164;2022-09-06T05:03:32;22.90;99.90
21193;DHT22;10754;51.106;7.164;2022-09-06T05:06:09;22.80;99.90
21193;DHT22;10754;51.106;7.164;2022-09-06T05:08:38;23.00;99.90
21193;DHT22;10754;51.106;7.164;2022-09-06T05:11:05;22.90;99.90
21193;DHT22;10754;51.106;7.164;2022-09-06T05:13:31;22.90;99.90
21193;DHT22;10754;51.106;7.164;2022-09-06T05:16:01;22.70;99.90
21193;DHT22;10754;51.106;7.164;2022-09-06T05:18:28;22.80;99.90
21193;DHT22;10754;51.106;7.164;2022-09-06T05:20:53;22.80;99.90
21193;DHT22;10754;51.106;7.164;2022-09-06T05:23:20;22.80;99.90
21193;DHT22;10754;51.106;7.164;2022-09-06T05:25:46;22.90;99.90
21193;DHT22;10754;51.106;7.164;2022-09-06T05:28:12;23.00;99.90
21193;DHT22;10754;51.106;7.164;2022-09-06T05:30:38;22.90;99.90
21193;DHT22;10754;51.106;7.164;2022-09-06T05:33:03;22.90;99.90
21193;DHT22;10754;51.106;7.164;2022-09-06T05:35:29;22.80;99.90
21193;DHT22;10754;51.106;7.164;2022-09-06T05:37:55;22.80;99.90
21193;DHT22;10754;51.106;7.164;2022-09-06T05:40:20;22.80;99.90
21193;DHT22;10754;51.106;7.164;2022-09-06T05:42:46;22.80;99.90
21193;DHT22;10754;51.106;7.164;2022-09-06T05:45:11;22.80;99.90
21193;DHT22;10754;51.106;7.164;2022-09-06T05:47:37;22.90;99.90
21193;DHT22;10754;51.106;7.164;2022-09-06T05:50:03;22.90;99.90
21193;DHT22;10754;51.106;7.164;2022-09-06T05:52:28;22.80;99.90
21193;DHT22;10754;51.106;7.164;2022-09-06T05:54:54;22.80;99.90
21193;DHT22;10754;51.106;7.164;2022-09-06T05:57:20;22.80;99.90
21193;DHT22;10754;51.106;7.164;2022-09-06T05:59:45;22.80;99.90
21193;DHT22;10754;51.106;7.164;2022-09-06T06:02:11;22.80;99.90
21193;DHT22;10754;51.106;7.164;2022-09-06T06:04:36;22.80;99.90
21193;DHT22;10754;51.106;7.164;2022-09-06T06:07:02;22.80;99.90
21193;DHT22;10754;51.106;7.164;2022-09-06T06:09:27;22.80;99.90
21193;DHT22;10754;51.106;7.164;2022-09-06T06:11:53;22.80;99.90
21193;DHT22;10754;51.106;7.164;2022-09-06T06:14:18;22.80;99.90
21193;DHT22;10754;51.106;7.164;2022-09-06T06:16:44;22.80;99.90
21193;DHT22;10754;51.106;7.164;2022-09-06T06:19:09;22.80;99.90
21193;DHT22;10754;51.106;7.164;2022-09-06T06:21:35;22.90;99.90
21193;DHT22;10754;51.106;7.164;2022-09-06T06:24:03;22.90;99.90
21193;DHT22;10754;51.106;7.164;2022-09-06T06:26:32;22.90;99.90
21193;DHT22;10754;51.106;7.164;2022-09-06T06:28:58;22.90;99.90
21193;DHT22;10754;51.106;7.164;2022-09-06T06:31:27;22.90;99.90
21193;DHT22;10754;51.106;7.164;2022-09-06T06:33:52;22.90;99.90
21193;DHT22;10754;51.106;7.164;2022-09-06T06:36:23;22.90;99.90
21193;DHT22;10754;51.106;7.164;2022-09-06T06:38:51;23.00;99.90
21193;DHT22;10754;51.106;7.164;2022-09-06T06:41:19;23.00;99.90
21193;DHT22;10754;51.106;7.164;2022-09-06T06:43:45;23.00;99.90
21193;DHT22;10754;51.106;7.164;2022-09-06T06:46:16;23.00;99.90
21193;DHT22;10754;51.106;7.164;2022-09-06T06:48:43;23.10;99.90
21193;DHT22;10754;51.106;7.164;2022-09-06T06:51:11;23.10;99.90
21193;DHT22;10754;51.106;7.164;2022-09-06T06:53:36;23.10;99.90
21193;DHT22;10754;51.106;7.164;2022-09-06T06:56:40;23.10;99.90
21193;DHT22;10754;51.106;7.164;2022-09-06T06:59:06;23.30;99.90
21193;DHT22;10754;51.106;7.164;2022-09-06T07:01:33;23.30;99.90
21193;DHT22;10754;51.106;7.164;2022-09-06T07:03:59;23.30;99.90
21193;DHT22;10754;51.106;7.164;2022-09-06T07:06:25;23.30;99.90
21193;DHT22;10754;51.106;7.164;2022-09-06T07:08:57;23.40;99.90
21193;DHT22;10754;51.106;7.164;2022-09-06T07:11:23;23.40;99.90
21193;DHT22;10754;51.106;7.164;2022-09-06T07:13:48;23.40;99.90
21193;DHT22;10754;51.106;7.164;2022-09-06T07:18:42;23.50;99.90
21193;DHT22;10754;51.106;7.164;2022-09-06T07:21:14;23.60;99.90
21193;DHT22;10754;51.106;7.164;2022-09-06T07:23:41;23.90;99.90
21193;DHT22;10754;51.106;7.164;2022-09-06T07:26:07;23.90;99.90
21193;DHT22;10754;51.106;7.164;2022-09-06T07:28:32;23.90;99.90
21193;DHT22;10754;51.106;7.164;2022-09-06T07:30:58;23.90;99.90
21193;DHT22;10754;51.106;7.164;2022-09-06T07:33:25;24.00;99.90
21193;DHT22;10754;51.106;7.164;2022-09-06T07:35:59;24.40;99.90
21193;DHT22;10754;51.106;7.164;2022-09-06T07:38:28;24.60;99.90
21193;DHT22;10754;51.106;7.164;2022-09-06T07:40:55;24.60;99.90
21193;DHT22;10754;51.106;7.164;2022-09-06T07:43:22;24.50;99.90
21193;DHT22;10754;51.106;7.164;2022-09-06T07:45:48;24.30;99.90
21193;DHT22;10754;51.106;7.164;2022-09-06T07:48:14;24.40;99.90
21193;DHT22;10754;51.106;7.164;2022-09-06T07:50:39;24.50;99.90
21193;DHT22;10754;51.106;7.164;2022-09-06T07:53:06;24.70;99.90
21193;DHT22;10754;51.106;7.164;2022-09-06T07:55:32;24.50;99.90
21193;DHT22;10754;51.106;7.164;2022-09-06T07:57:57;24.50;99.90
21193;DHT22;10754;51.106;7.164;2022-09-06T08:00:23;24.60;99.90
21193;DHT22;10754;51.106;7.164;2022-09-06T08:02:49;25.00;99.90
21193;DHT22;10754;51.106;7.164;2022-09-06T08:05:15;25.10;99.90
21193;DHT22;10754;51.106;7.164;2022-09-06T08:07:40;25.20;99.90
21193;DHT22;10754;51.106;7.164;2022-09-06T08:10:06;25.30;99.90
21193;DHT22;10754;51.106;7.164;2022-09-06T08:12:32;25.30;99.90
21193;DHT22;10754;51.106;7.164;2022-09-06T08:14:57;25.50;99.90
21193;DHT22;10754;51.106;7.164;2022-09-06T08:17:23;25.40;99.90
21193;DHT22;10754;51.106;7.164;2022-09-06T08:19:48;25.30;99.90
21193;DHT22;10754;51.106;7.164;2022-09-06T08:22:14;25.60;99.90
21193;DHT22;10754;51.106;7.164;2022-09-06T08:24:40;25.50;99.90
21193;DHT22;10754;51.106;7.164;2022-09-06T08:27:05;25.70;99.90
21193;DHT22;10754;51.106;7.164;2022-09-06T08:29:32;25.80;99.90
21193;DHT22;10754;51.106;7.164;2022-09-06T08:31:58;25.70;99.90
21193;DHT22;10754;51.106;7.164;2022-09-06T08:34:24;25.70;99.90
21193;DHT22;10754;51.106;7.164;2022-09-06T08:36:49;25.70;99.90
21193;DHT22;10754;51.106;7.164;2022-09-06T08:39:15;26.10;99.90
21193;DHT22;10754;51.106;7.164;2022-09-06T08:41:48;26.40;99.90
21193;DHT22;10754;51.106;7.164;2022-09-06T08:47:05;26.20;99.90
21193;DHT22;10754;51.106;7.164;2022-09-06T08:49:35;26.50;99.90
21193;DHT22;10754;51.106;7.164;2022-09-06T08:56:04;26.90;99.90
21193;DHT22;10754;51.106;7.164;2022-09-06T09:00:56;26.40;99.90
21193;DHT22;10754;51.106;7.164;2022-09-06T09:03:42;26.30;99.90
21193;DHT22;10754;51.106;7.164;2022-09-06T09:06:09;26.70;99.90
21193;DHT22;10754;51.106;7.164;2022-09-06T09:08:48;26.60;99.90
21193;DHT22;10754;51.106;7.164;2022-09-06T09:11:20;26.60;99.90
21193;DHT22;10754;51.106;7.164;2022-09-06T09:16:14;26.90;99.90
21193;DHT22;10754;51.106;7.164;2022-09-06T09:18:43;27.00;99.90
21193;DHT22;10754;51.106;7.164;2022-09-06T09:21:10;27.10;99.90
21193;DHT22;10754;51.106;7.164;2022-09-06T09:23:36;27.10;99.90
21193;DHT22;10754;51.106;7.164;2022-09-06T09:26:05;27.10;99.90
21193;DHT22;10754;51.106;7.164;2022-09-06T09:28:31;26.90;99.90
21193;DHT22;10754;51.106;7.164;2022-09-06T09:30:57;26.80;99.90
21193;DHT22;10754;51.106;7.164;2022-09-06T09:33:33;26.80;99.90
21193;DHT22;10754;51.106;7.164;2022-09-06T09:36:04;27.10;99.90
21193;DHT22;10754;51.106;7.164;2022-09-06T09:38:43;27.30;99.90
21193;DHT22;10754;51.106;7.164;2022-09-06T09:41:32;27.20;99.90
21193;DHT22;10754;51.106;7.164;2022-09-06T09:44:04;27.10;99.90
21193;DHT22;10754;51.106;7.164;2022-09-06T09:46:38;27.10;99.90
21193;DHT22;10754;51.106;7.164;2022-09-06T09:49:12;27.40;99.90
21193;DHT22;10754;51.106;7.164;2022-09-06T09:51:46;27.30;99.90
21193;DHT22;10754;51.106;7.164;2022-09-06T09:54:34;27.20;99.90
21193;DHT22;10754;51.106;7.164;2022-09-06T09:57:00;27.30;99.90
21193;DHT22;10754;51.106;7.164;2022-09-06T10:02:32;27.30;99.90
21193;DHT22;10754;51.106;7.164;2022-09-06T10:07:49;27.90;99.90
21193;DHT22;10754;51.106;7.164;2022-09-06T10:10:21;28.00;99.90
21193;DHT22;10754;51.106;7.164;2022-09-06T10:12:47;28.20;99.90
21193;DHT22;10754;51.106;7.164;2022-09-06T10:15:33;28.30;99.90
21193;DHT22;10754;51.106;7.164;2022-09-06T10:17:59;28.70;99.90
21193;DHT22;10754;51.106;7.164;2022-09-06T10:20:41;29.00;99.90
21193;DHT22;10754;51.106;7.164;2022-09-06T10:26:08;29.50;99.90
21193;DHT22;10754;51.106;7.164;2022-09-06T10:28:40;29.70;99.90
21193;DHT22;10754;51.106;7.164;2022-09-06T10:31:24;29.90;99.90
21193;DHT22;10754;51.106;7.164;2022-09-06T10:36:41;30.30;99.90
21193;DHT22;10754;51.106;7.164;2022-09-06T10:39:28;30.50;99.90
21193;DHT22;10754;51.106;7.164;2022-09-06T10:42:07;30.80;99.90
21193;DHT22;10754;51.106;7.164;2022-09-06T10:45:14;31.00;99.90
21193;DHT22;10754;51.106;7.164;2022-09-06T10:47:56;31.10;99.90
21193;DHT22;10754;51.106;7.164;2022-09-06T10:53:03;31.50;99.90
21193;DHT22;10754;51.106;7.164;2022-09-06T10:55:31;31.60;99.90
21193;DHT22;10754;51.106;7.164;2022-09-06T10:58:00;31.90;99.90
21193;DHT22;10754;51.106;7.164;2022-09-06T11:00:33;32.10;99.90
21193;DHT22;10754;51.106;7.164;2022-09-06T11:03:09;32.30;99.90
21193;DHT22;10754;51.106;7.164;2022-09-06T11:05:44;32.50;99.90
21193;DHT22;10754;51.106;7.164;2022-09-06T11:08:17;32.70;99.90
21193;DHT22;10754;51.106;7.164;2022-09-06T11:10:47;33.00;99.90
21193;DHT22;10754;51.106;7.164;2022-09-06T11:13:17;33.30;99.90
21193;DHT22;10754;51.106;7.164;2022-09-06T11:23:57;33.80;99.90
21193;DHT22;10754;51.106;7.164;2022-09-06T11:29:20;34.40;99.90
21193;DHT22;10754;51.106;7.164;2022-09-06T11:32:00;34.70;99.90
21193;DHT22;10754;51.106;7.164;2022-09-06T11:34:32;34.90;99.90
21193;DHT22;10754;51.106;7.164;2022-09-06T11:37:02;35.80;99.90
21193;DHT22;10754;51.106;7.164;2022-09-06T11:39:38;37.10;83.20
21193;DHT22;10754;51.106;7.164;2022-09-06T11:57:59;40.40;1.00
21193;DHT22;10754;51.106;7.164;2022-09-06T12:00:26;40.50;1.00
21193;DHT22;10754;51.106;7.164;2022-09-06T12:02:52;41.80;1.00
21193;DHT22;10754;51.106;7.164;2022-09-06T12:05:23;42.60;1.00
21193;DHT22;10754;51.106;7.164;2022-09-06T12:10:45;42.30;1.00
21193;DHT22;10754;51.106;7.164;2022-09-06T12:16:12;42.40;1.00
21193;DHT22;10754;51.106;7.164;2022-09-06T12:23:58;43.70;1.00
21193;DHT22;10754;51.106;7.164;2022-09-06T12:27:13;43.90;1.00
21193;DHT22;10754;51.106;7.164;2022-09-06T12:30:06;44.20;1.00
21193;DHT22;10754;51.106;7.164;2022-09-06T12:32:39;44.50;1.00
21193;DHT22;10754;51.106;7.164;2022-09-06T12:35:11;44.20;1.00
21193;DHT22;10754;51.106;7.164;2022-09-06T12:37:56;43.10;1.00
21193;DHT22;10754;51.106;7.164;2022-09-06T12:40:25;42.30;1.00
21193;DHT22;10754;51.106;7.164;2022-09-06T12:42:51;42.00;1.00
21193;DHT22;10754;51.106;7.164;2022-09-06T12:45:20;41.60;1.00
21193;DHT22;10754;51.106;7.164;2022-09-06T12:47:46;41.30;1.00
21193;DHT22;10754;51.106;7.164;2022-09-06T12:50:20;41.40;1.00
21193;DHT22;10754;51.106;7.164;2022-09-06T12:52:52;41.00;1.00
21193;DHT22;10754;51.106;7.164;2022-09-06T12:57:54;40.60;1.00
21193;DHT22;10754;51.106;7.164;2022-09-06T13:00:21;41.10;1.00
21193;DHT22;10754;51.106;7.164;2022-09-06T13:05:39;41.60;1.00
21193;DHT22;10754;51.106;7.164;2022-09-06T13:08:11;40.50;1.00
21193;DHT22;10754;51.106;7.164;2022-09-06T13:10:39;39.80;1.00
21193;DHT22;10754;51.106;7.164;2022-09-06T13:13:06;39.80;1.00
21193;DHT22;10754;51.106;7.164;2022-09-06T13:15:32;39.70;5.10
21193;DHT22;10754;51.106;7.164;2022-09-06T13:18:22;40.10;1.00
21193;DHT22;10754;51.106;7.164;2022-09-06T13:21:02;41.00;1.00
21193;DHT22;10754;51.106;7.164;2022-09-06T13:23:29;41.70;1.00
21193;DHT22;10754;51.106;7.164;2022-09-06T13:25:55;42.50;1.00
21193;DHT22;10754;51.106;7.164;2022-09-06T13:28:32;42.50;1.00
21193;DHT22;10754;51.106;7.164;2022-09-06T13:31:17;41.10;1.00
21193;DHT22;10754;51.106;7.164;2022-09-06T13:33:44;39.90;1.00
21193;DHT22;10754;51.106;7.164;2022-09-06T13:38:42;38.10;19.30
21193;DHT22;10754;51.106;7.164;2022-09-06T13:46:28;37.10;46.70
21193;DHT22;10754;51.106;7.164;2022-09-06T13:48:57;36.80;52.90
21193;DHT22;10754;51.106;7.164;2022-09-06T13:51:23;36.70;47.70
21193;DHT22;10754;51.106;7.164;2022-09-06T13:53:50;36.60;44.20
21193;DHT22;10754;51.106;7.164;2022-09-06T13:56:16;36.50;41.70
21193;DHT22;10754;51.106;7.164;2022-09-06T13:58:43;36.50;26.70
21193;DHT22;10754;51.106;7.164;2022-09-06T14:01:09;36.50;17.10
21193;DHT22;10754;51.106;7.164;2022-09-06T14:03:38;36.60;21.00
21193;DHT22;10754;51.106;7.164;2022-09-06T14:06:04;36.40;26.40
21193;DHT22;10754;51.106;7.164;2022-09-06T14:08:30;35.90;63.20
21193;DHT22;10754;51.106;7.164;2022-09-06T14:10:56;35.70;53.00
21193;DHT22;10754;51.106;7.164;2022-09-06T14:13:22;35.60;50.80
21193;DHT22;10754;51.106;7.164;2022-09-06T14:15:48;35.40;52.00
21193;DHT22;10754;51.106;7.164;2022-09-06T14:18:14;35.40;29.50
21193;DHT22;10754;51.106;7.164;2022-09-06T14:20:40;35.30;26.10
21193;DHT22;10754;51.106;7.164;2022-09-06T14:23:06;34.90;48.80
21193;DHT22;10754;51.106;7.164;2022-09-06T14:25:36;34.80;56.40
21193;DHT22;10754;51.106;7.164;2022-09-06T14:28:03;34.50;55.40
21193;DHT22;10754;51.106;7.164;2022-09-06T14:30:29;34.50;52.10
21193;DHT22;10754;51.106;7.164;2022-09-06T14:32:55;34.40;51.60
21193;DHT22;10754;51.106;7.164;2022-09-06T14:35:20;34.30;62.10
21193;DHT22;10754;51.106;7.164;2022-09-06T14:37:46;34.10;75.40
21193;DHT22;10754;51.106;7.164;2022-09-06T14:40:11;33.90;74.90
21193;DHT22;10754;51.106;7.164;2022-09-06T14:42:37;34.00;75.40
21193;DHT22;10754;51.106;7.164;2022-09-06T14:45:03;33.90;84.90
21193;DHT22;10754;51.106;7.164;2022-09-06T14:47:29;34.20;56.10
21193;DHT22;10754;51.106;7.164;2022-09-06T14:49:56;34.00;59.70
21193;DHT22;10754;51.106;7.164;2022-09-06T14:52:21;33.80;78.10
21193;DHT22;10754;51.106;7.164;2022-09-06T14:54:47;33.50;96.00
21193;DHT22;10754;51.106;7.164;2022-09-06T14:57:12;33.40;99.90
21193;DHT22;10754;51.106;7.164;2022-09-06T14:59:38;33.40;99.90
21193;DHT22;10754;51.106;7.164;2022-09-06T15:02:03;33.20;99.90
21193;DHT22;10754;51.106;7.164;2022-09-06T15:04:29;33.10;99.90
21193;DHT22;10754;51.106;7.164;2022-09-06T15:06:54;33.00;99.90
21193;DHT22;10754;51.106;7.164;2022-09-06T15:09:20;32.90;99.90
21193;DHT22;10754;51.106;7.164;2022-09-06T15:11:47;32.80;99.90
21193;DHT22;10754;51.106;7.164;2022-09-06T15:14:19;32.70;99.90
21193;DHT22;10754;51.106;7.164;2022-09-06T15:16:47;32.60;99.90
21193;DHT22;10754;51.106;7.164;2022-09-06T15:19:13;32.50;99.90
21193;DHT22;10754;51.106;7.164;2022-09-06T15:21:39;32.40;99.90
21193;DHT22;10754;51.106;7.164;2022-09-06T15:24:05;32.30;99.90
21193;DHT22;10754;51.106;7.164;2022-09-06T15:26:31;32.30;99.90
21193;DHT22;10754;51.106;7.164;2022-09-06T15:28:57;32.20;99.90
21193;DHT22;10754;51.106;7.164;2022-09-06T15:31:23;32.10;99.90
21193;DHT22;10754;51.106;7.164;2022-09-06T15:33:49;32.10;99.90
21193;DHT22;10754;51.106;7.164;2022-09-06T15:36:16;32.10;99.90
21193;DHT22;10754;51.106;7.164;2022-09-06T15:38:43;32.00;99.90
21193;DHT22;10754;51.106;7.164;2022-09-06T15:41:11;31.80;99.90
21193;DHT22;10754;51.106;7.164;2022-09-06T15:43:40;31.90;99.90
21193;DHT22;10754;51.106;7.164;2022-09-06T15:46:07;31.80;99.90
21193;DHT22;10754;51.106;7.164;2022-09-06T15:48:40;31.70;99.90
21193;DHT22;10754;51.106;7.164;2022-09-06T15:51:06;31.80;99.90
21193;DHT22;10754;51.106;7.164;2022-09-06T15:53:31;31.60;99.90
21193;DHT22;10754;51.106;7.164;2022-09-06T15:55:58;31.50;99.90
21193;DHT22;10754;51.106;7.164;2022-09-06T15:58:25;31.50;99.90
21193;DHT22;10754;51.106;7.164;2022-09-06T16:01:10;31.40;99.90
21193;DHT22;10754;51.106;7.164;2022-09-06T16:03:48;31.50;99.90
21193;DHT22;10754;51.106;7.164;2022-09-06T16:06:19;31.30;99.90
21193;DHT22;10754;51.106;7.164;2022-09-06T16:08:46;31.30;99.90
21193;DHT22;10754;51.106;7.164;2022-09-06T16:11:14;31.20;99.90
21193;DHT22;10754;51.106;7.164;2022-09-06T16:13:41;31.10;99.90
21193;DHT22;10754;51.106;7.164;2022-09-06T16:16:10;31.00;99.90
21193;DHT22;10754;51.106;7.164;2022-09-06T16:18:38;31.00;99.90
21193;DHT22;10754;51.106;7.164;2022-09-06T16:23:35;30.90;99.90
21193;DHT22;10754;51.106;7.164;2022-09-06T16:26:01;30.80;99.90
21193;DHT22;10754;51.106;7.164;2022-09-06T16:28:32;30.80;99.90
21193;DHT22;10754;51.106;7.164;2022-09-06T16:31:02;30.80;99.90
21193;DHT22;10754;51.106;7.164;2022-09-06T16:33:28;30.70;99.90
21193;DHT22;10754;51.106;7.164;2022-09-06T16:35:54;30.60;99.90
21193;DHT22;10754;51.106;7.164;2022-09-06T16:38:19;30.50;99.90
21193;DHT22;10754;51.106;7.164;2022-09-06T16:40:45;30.40;99.90
21193;DHT22;10754;51.106;7.164;2022-09-06T16:43:11;30.40;99.90
21193;DHT22;10754;51.106;7.164;2022-09-06T16:45:37;30.30;99.90
21193;DHT22;10754;51.106;7.164;2022-09-06T16:48:02;30.20;99.90
21193;DHT22;10754;51.106;7.164;2022-09-06T16:50:28;30.20;99.90
21193;DHT22;10754;51.106;7.164;2022-09-06T16:52:54;30.10;99.90
21193;DHT22;10754;51.106;7.164;2022-09-06T16:55:19;30.10;99.90
21193;DHT22;10754;51.106;7.164;2022-09-06T16:57:45;30.10;99.90
21193;DHT22;10754;51.106;7.164;2022-09-06T17:00:11;30.00;99.90
21193;DHT22;10754;51.106;7.164;2022-09-06T17:02:37;30.00;99.90
21193;DHT22;10754;51.106;7.164;2022-09-06T17:05:03;30.00;99.90
21193;DHT22;10754;51.106;7.164;2022-09-06T17:07:29;29.90;99.90
21193;DHT22;10754;51.106;7.164;2022-09-06T17:09:55;29.90;99.90
21193;DHT22;10754;51.106;7.164;2022-09-06T17:12:21;29.80;99.90
21193;DHT22;10754;51.106;7.164;2022-09-06T17:14:46;29.70;99.90
21193;DHT22;10754;51.106;7.164;2022-09-06T17:17:12;29.70;99.90
21193;DHT22;10754;51.106;7.164;2022-09-06T17:19:39;29.80;99.90
21193;DHT22;10754;51.106;7.164;2022-09-06T17:22:10;29.70;99.90
21193;DHT22;10754;51.106;7.164;2022-09-06T17:24:37;29.80;99.90
21193;DHT22;10754;51.106;7.164;2022-09-06T17:27:04;29.80;99.90
21193;DHT22;10754;51.106;7.164;2022-09-06T17:29:29;29.70;99.90